Time;durP1;ratioP1;P1;durP2;ratioP2;P2;SDS_P1;SDS_P2;PMS_P1;PMS_P2;Temp;Humidity;BMP_temperature;BMP_pressure;BME280_temperature;BME280_humidity;BME280_pressure;Samples;Min_cycle;Max_cycle;Signal;HPM_P1;HPM_P2
2022/06/19 00:02:07;;;;;;;;;10.67;10.00;;;;;27.83;100.00;100189.06;5030180;28;45788;-81
2022/06/19 00:04:35;;;;;;;;;16.67;15.00;;;;;27.73;100.00;100240.16;5031186;28;46564;-81
2022/06/19 00:07:01;;;;;;;;;15.67;14.33;;;;;27.39;100.00;100210.94;5012538;28;45474;-83
2022/06/19 00:09:26;;;;;;;;;15.67;14.67;;;;;27.32;100.00;100205.75;5031916;28;45841;-81
2022/06/19 00:11:55;;;;;;;;;11.33;10.00;;;;;27.16;100.00;100278.69;5012690;28;47136;-81
2022/06/19 00:14:23;;;;;;;;;9.33;8.67;;;;;26.94;100.00;100240.28;5013426;28;45665;-83
2022/06/19 00:16:48;;;;;;;;;12.00;11.00;;;;;26.56;100.00;100246.56;5012552;28;45963;-80
2022/06/19 00:19:20;;;;;;;;;10.33;9.33;;;;;26.65;100.00;100308.41;5022535;28;45896;-82
2022/06/19 00:21:48;;;;;;;;;10.33;8.67;;;;;26.55;100.00;100285.06;5032846;28;45686;-83
2022/06/19 00:24:15;;;;;;;;;16.33;9.67;;;;;26.32;100.00;100295.63;5029453;28;46807;-82
2022/06/19 00:26:41;;;;;;;;;9.67;9.67;;;;;26.24;100.00;100314.13;5031734;28;45510;-81
2022/06/19 00:29:06;;;;;;;;;12.00;10.33;;;;;26.09;100.00;100331.41;5015481;28;45890;-81
2022/06/19 00:31:32;;;;;;;;;12.33;10.00;;;;;25.83;100.00;100306.81;5031665;28;45621;-81
2022/06/19 00:33:58;;;;;;;;;10.67;10.33;;;;;25.55;100.00;100278.91;5031711;28;46074;-81
2022/06/19 00:36:26;;;;;;;;;16.33;13.00;;;;;25.42;100.00;100273.34;5029575;28;45418;-83
2022/06/19 00:38:56;;;;;;;;;8.67;8.33;;;;;25.41;100.00;100294.19;5023806;28;45532;-82
2022/06/19 00:41:26;;;;;;;;;7.00;6.67;;;;;25.23;100.00;100294.03;5014012;28;47539;-82
2022/06/19 00:43:57;;;;;;;;;6.67;5.67;;;;;24.84;100.00;100243.06;5012739;28;48054;-83
2022/06/19 00:46:45;;;;;;;;;7.33;7.33;;;;;24.89;100.00;100272.13;5031851;28;45392;-81
2022/06/19 00:49:18;;;;;;;;;12.00;8.00;;;;;24.87;100.00;100291.25;5025960;28;45707;-81
2022/06/19 00:51:44;;;;;;;;;11.67;10.67;;;;;24.54;100.00;100278.22;5024274;28;45606;-82
2022/06/19 00:54:13;;;;;;;;;8.33;7.00;;;;;24.50;100.00;100292.03;5018826;28;46355;-81
2022/06/19 00:56:39;;;;;;;;;16.67;14.00;;;;;24.19;100.00;100288.22;5014531;28;45427;-80
2022/06/19 00:59:08;;;;;;;;;9.67;8.00;;;;;24.10;100.00;100305.78;5012559;28;45803;-82
2022/06/19 01:01:34;;;;;;;;;12.67;9.67;;;;;23.99;100.00;100312.72;4985846;28;45464;-80
2022/06/19 01:04:08;;;;;;;;;11.33;10.00;;;;;23.80;100.00;100338.81;5006962;28;45540;-79
2022/06/19 01:06:34;;;;;;;;;16.33;12.00;;;;;23.60;100.00;100339.16;4994919;28;45910;-82
2022/06/19 01:09:00;;;;;;;;;7.33;7.33;;;;;23.44;100.00;100356.22;4997618;28;45544;-81
2022/06/19 01:11:31;;;;;;;;;9.33;6.67;;;;;23.24;100.00;100350.94;5009676;28;45625;-81
2022/06/19 01:13:57;;;;;;;;;13.00;8.00;;;;;22.98;100.00;100345.72;5010485;28;48057;-82
2022/06/19 01:16:23;;;;;;;;;13.00;11.67;;;;;22.85;100.00;100332.50;5002498;28;46270;-80
2022/06/19 01:18:49;;;;;;;;;13.33;10.33;;;;;22.72;100.00;100354.47;4994250;28;45365;-81
2022/06/19 01:21:31;;;;;;;;;11.67;10.67;;;;;22.55;100.00;100360.53;5003460;28;45790;-81
2022/06/19 01:24:04;;;;;;;;;13.67;12.00;;;;;22.36;100.00;100328.94;4990400;28;45787;-81
2022/06/19 01:26:36;;;;;;;;;10.00;9.00;;;;;22.09;100.00;100309.97;5009411;28;45787;-82
2022/06/19 01:29:02;;;;;;;;;17.67;16.67;;;;;22.08;100.00;100334.28;5011945;28;45552;-81
2022/06/19 01:31:35;;;;;;;;;11.67;8.33;;;;;21.77;100.00;100333.75;5011324;28;45968;-82
2022/06/19 01:37:29;;;;;;;;;11.67;10.33;;;;;21.40;100.00;100363.06;5014485;28;45953;-80
2022/06/19 01:40:05;;;;;;;;;12.00;10.67;;;;;21.21;100.00;100372.13;5010359;28;45455;-80
2022/06/19 01:42:31;;;;;;;;;12.33;10.00;;;;;21.12;100.00;100376.66;4993440;28;46401;-79
2022/06/19 01:44:57;;;;;;;;;12.67;9.33;;;;;20.87;100.00;100358.13;4993581;28;46833;-78
2022/06/19 01:47:24;;;;;;;;;14.33;9.33;;;;;20.97;100.00;100366.41;4995204;28;45530;-80
2022/06/19 01:49:52;;;;;;;;;9.67;9.67;;;;;20.76;100.00;100307.19;4996295;28;45461;-82
2022/06/19 01:52:18;;;;;;;;;12.00;11.00;;;;;20.75;100.00;100322.25;5004221;28;45950;-81
2022/06/19 01:54:56;;;;;;;;;9.33;9.33;;;;;20.79;100.00;100306.59;5015064;28;46367;-82
2022/06/19 01:57:23;;;;;;;;;15.00;11.33;;;;;20.63;100.00;100272.41;5011296;28;45837;-82
2022/06/19 01:59:51;;;;;;;;;11.67;10.00;;;;;20.45;100.00;100283.09;5006056;28;45694;-81
2022/06/19 02:02:20;;;;;;;;;12.33;11.00;;;;;20.11;100.00;100266.25;5028790;28;46896;-81
2022/06/19 02:04:52;;;;;;;;;15.33;10.33;;;;;20.18;100.00;100341.97;5013731;28;47612;-80
2022/06/19 02:07:47;;;;;;;;;14.00;10.67;;;;;20.08;100.00;100369.84;5030336;28;45432;-84
2022/06/19 02:10:15;;;;;;;;;15.00;11.33;;;;;19.98;100.00;100367.06;5013282;28;45417;-82
2022/06/19 02:12:42;;;;;;;;;12.33;9.67;;;;;20.01;100.00;100399.91;5031772;28;45548;-81
2022/06/19 02:15:14;;;;;;;;;14.67;13.33;;;;;20.04;100.00;100393.78;5009463;28;46681;-81
2022/06/19 02:18:00;;;;;;;;;13.67;10.67;;;;;20.06;100.00;100380.41;5014243;28;45463;-80
2022/06/19 02:20:54;;;;;;;;;13.33;13.00;;;;;20.15;100.00;100387.09;5032375;28;45887;-83
2022/06/19 02:23:35;;;;;;;;;16.33;13.67;;;;;20.22;100.00;100414.63;5007457;28;45792;-80
2022/06/19 02:26:03;;;;;;;;;13.00;12.00;;;;;20.24;100.00;100416.03;5033988;28;45948;-80
2022/06/19 02:28:31;;;;;;;;;12.00;9.67;;;;;20.19;100.00;100373.41;5017322;28;45648;-83
2022/06/19 02:31:01;;;;;;;;;12.33;9.00;;;;;20.39;100.00;100401.22;5031641;28;45422;-82
2022/06/19 02:33:34;;;;;;;;;12.00;8.00;;;;;20.37;100.00;100400.66;5032046;28;45758;-82
2022/06/19 02:36:02;;;;;;;;;9.33;8.00;;;;;20.43;100.00;100412.63;5033531;28;46301;-81
2022/06/19 02:38:28;;;;;;;;;11.33;11.00;;;;;20.34;100.00;100409.56;5033817;28;45553;-81
2022/06/19 02:40:57;;;;;;;;;12.33;9.33;;;;;20.39;100.00;100437.44;5033727;28;45549;-78
2022/06/19 02:43:32;;;;;;;;;11.67;9.00;;;;;20.44;100.00;100440.19;5033293;28;45768;-80
2022/06/19 02:45:58;;;;;;;;;10.67;8.33;;;;;20.40;100.00;100435.47;5034166;28;46246;-81
2022/06/19 02:48:28;;;;;;;;;10.67;9.33;;;;;20.43;100.00;100490.59;5016007;28;45451;-79
2022/06/19 02:50:56;;;;;;;;;8.00;8.00;;;;;20.50;100.00;100654.69;5032579;28;45728;-80
2022/06/19 02:53:22;;;;;;;;;9.00;6.67;;;;;20.59;100.00;100701.22;5033611;28;45860;-79
2022/06/19 02:55:54;;;;;;;;;12.00;9.00;;;;;20.63;100.00;100574.16;5001953;28;46901;-83
2022/06/19 02:58:22;;;;;;;;;13.67;11.33;;;;;20.52;100.00;100553.00;5034420;28;45486;-82
2022/06/19 03:00:51;;;;;;;;;12.00;10.33;;;;;20.78;100.00;100644.97;5016353;28;45486;-82
2022/06/19 03:03:26;;;;;;;;;9.67;9.00;;;;;20.57;100.00;100602.31;5003844;28;46385;-80
2022/06/19 03:05:51;;;;;;;;;7.67;7.33;;;;;20.77;100.00;100624.63;5013914;28;47911;-81
2022/06/19 03:08:17;;;;;;;;;7.67;6.67;;;;;20.83;100.00;100599.53;5012168;28;45688;-79
2022/06/19 03:10:43;;;;;;;;;7.33;7.33;;;;;20.90;100.00;100542.38;5029932;28;45514;-79
2022/06/19 03:13:08;;;;;;;;;9.33;6.33;;;;;20.85;100.00;100553.53;5033763;28;45460;-80
2022/06/19 03:15:34;;;;;;;;;7.00;6.67;;;;;20.95;100.00;100531.19;5015736;28;47184;-80
2022/06/19 03:18:00;;;;;;;;;6.33;6.33;;;;;20.92;100.00;100581.94;5015856;28;45519;-80
2022/06/19 03:20:27;;;;;;;;;12.33;6.33;;;;;20.90;100.00;100609.28;5008478;28;45454;-80
2022/06/19 03:22:54;;;;;;;;;10.00;8.00;;;;;20.81;100.00;100560.81;5031285;28;45711;-81
2022/06/19 03:25:27;;;;;;;;;11.00;7.67;;;;;20.85;100.00;100597.28;5031350;28;46840;-82
2022/06/19 03:27:54;;;;;;;;;11.33;10.33;;;;;20.84;100.00;100581.69;5017433;28;45524;-80
2022/06/19 03:30:21;;;;;;;;;10.00;9.00;;;;;20.91;100.00;100577.50;5014924;28;45725;-80
2022/06/19 03:32:49;;;;;;;;;13.33;7.67;;;;;20.81;100.00;100541.28;5020109;28;45750;-81
2022/06/19 03:35:17;;;;;;;;;11.00;9.00;;;;;20.90;100.00;100555.47;5045065;28;46800;-81
2022/06/19 03:37:43;;;;;;;;;10.33;8.00;;;;;20.96;100.00;100594.19;5026018;28;45070;-83
2022/06/19 03:40:10;;;;;;;;;7.67;7.33;;;;;20.81;100.00;100563.59;5026910;28;45904;-81
2022/06/19 03:42:36;;;;;;;;;13.33;11.33;;;;;20.88;100.00;100574.44;5019398;28;46482;-81
2022/06/19 03:45:05;;;;;;;;;12.67;10.33;;;;;20.88;100.00;100597.56;5027240;28;46919;-81
2022/06/19 03:47:31;;;;;;;;;13.33;10.33;;;;;20.88;100.00;100575.25;5046529;28;45475;-81
2022/06/19 03:50:03;;;;;;;;;11.67;11.33;;;;;20.78;100.00;100572.50;5028069;28;45392;-80
2022/06/19 03:52:28;;;;;;;;;9.33;9.33;;;;;20.70;100.00;100545.19;5005563;28;45398;-82
2022/06/19 03:54:55;;;;;;;;;12.67;9.67;;;;;20.84;100.00;100549.09;5023652;28;45835;-78
2022/06/19 03:57:20;;;;;;;;;16.33;14.33;;;;;20.82;100.00;100551.31;5032791;28;45771;-79
2022/06/19 03:59:46;;;;;;;;;12.67;10.00;;;;;20.75;100.00;100520.94;5006115;28;45425;-79
2022/06/19 04:02:11;;;;;;;;;9.67;9.67;;;;;20.54;100.00;100491.41;5031682;28;45563;-79
2022/06/19 04:04:41;;;;;;;;;9.67;9.67;;;;;20.44;100.00;100472.78;5011165;28;47399;-81
2022/06/19 04:07:11;;;;;;;;;11.33;8.67;;;;;20.38;100.00;100497.03;5017201;28;45519;-80
2022/06/19 04:09:45;;;;;;;;;12.33;10.00;;;;;20.31;100.00;100526.28;5030093;28;45522;-81
2022/06/19 04:12:15;;;;;;;;;11.67;9.00;;;;;20.20;100.00;100562.47;5035057;28;45782;-80
2022/06/19 04:14:44;;;;;;;;;12.00;9.67;;;;;19.67;100.00;100532.06;5029317;28;46222;-80
2022/06/19 04:17:19;;;;;;;;;8.33;7.33;;;;;19.80;100.00;100582.75;5009697;28;45694;-81
2022/06/19 04:19:46;;;;;;;;;11.00;10.00;;;;;19.61;100.00;100519.25;5008265;28;45648;-80
2022/06/19 04:22:11;;;;;;;;;10.33;8.00;;;;;19.80;100.00;100543.81;5017207;28;45734;-76
2022/06/19 04:24:41;;;;;;;;;11.00;7.67;;;;;19.49;100.00;100502.81;5026329;28;46270;-80
2022/06/19 04:27:09;;;;;;;;;13.33;11.33;;;;;19.17;100.00;100481.56;5018676;28;45849;-79
2022/06/19 04:29:36;;;;;;;;;11.00;10.00;;;;;18.88;100.00;100476.47;5038384;28;45444;-79
2022/06/19 04:32:03;;;;;;;;;11.00;9.33;;;;;18.94;100.00;100463.44;5038192;28;45566;-79
2022/06/19 04:34:28;;;;;;;;;15.33;10.33;;;;;18.64;100.00;100455.78;5027478;28;45841;-78
2022/06/19 04:36:54;;;;;;;;;15.67;12.67;;;;;18.44;100.00;100518.44;5010059;28;45891;-78
2022/06/19 04:39:20;;;;;;;;;16.00;12.67;;;;;18.13;100.00;100567.31;5011187;28;45440;-78
2022/06/19 04:42:11;;;;;;;;;;;;;;;;;;;;;
2022/06/19 04:44:36;;;;;;;;;14.67;11.00;;;;;17.58;100.00;100544.28;5028634;28;74401;-79
2022/06/19 04:47:06;;;;;;;;;11.00;11.00;;;;;17.89;100.00;100564.88;5030379;28;45439;-77
2022/06/19 04:49:38;;;;;;;;;13.33;11.00;;;;;17.74;100.00;100454.59;5012500;28;45599;-79
2022/06/19 04:52:04;;;;;;;;;9.00;9.00;;;;;17.91;100.00;100486.94;5030362;28;45858;-78
2022/06/19 04:54:36;;;;;;;;;7.00;6.67;;;;;17.80;100.00;100505.41;5009781;28;47232;-79
2022/06/19 04:57:01;;;;;;;;;9.00;8.00;;;;;17.77;100.00;100505.91;5011662;28;45483;-80
2022/06/19 04:59:27;;;;;;;;;8.00;8.00;;;;;17.83;100.00;100479.91;5031323;28;45866;-84
2022/06/19 05:01:53;;;;;;;;;10.67;8.00;;;;;17.79;100.00;100496.22;5029330;28;47479;-80
2022/06/19 05:04:18;;;;;;;;;7.00;7.00;;;;;17.65;100.00;100501.38;5030986;28;45855;-80
2022/06/19 05:06:44;;;;;;;;;10.00;7.33;;;;;18.18;100.00;100543.22;5033966;28;45796;-79
2022/06/19 05:09:09;;;;;;;;;6.67;5.00;;;;;18.00;100.00;100436.22;5030930;28;45643;-80
2022/06/19 05:11:35;;;;;;;;;8.67;7.33;;;;;18.09;100.00;100486.53;5033999;28;45419;-80
2022/06/19 05:14:02;;;;;;;;;7.33;6.33;;;;;17.99;100.00;100509.47;5015741;28;46171;-78
2022/06/19 05:16:27;;;;;;;;;4.00;4.00;;;;;17.93;100.00;100529.94;5016113;28;45744;-80
2022/06/19 05:18:55;;;;;;;;;8.33;5.67;;;;;17.88;100.00;100552.06;5033996;28;45778;-78
2022/06/19 05:21:25;;;;;;;;;5.67;5.00;;;;;17.64;100.00;100527.41;5034006;28;45937;-81
2022/06/19 05:23:53;;;;;;;;;7.00;4.33;;;;;17.73;100.00;100543.59;5036261;28;46787;-80
2022/06/19 05:26:29;;;;;;;;;9.00;7.67;;;;;17.61;100.00;100527.13;5032510;28;45488;-82
2022/06/19 05:28:56;;;;;;;;;7.33;4.00;;;;;17.71;100.00;100502.25;5014590;28;45421;-79
2022/06/19 05:31:23;;;;;;;;;10.00;4.00;;;;;17.72;100.00;100476.19;5033301;28;45951;-80
2022/06/19 05:33:50;;;;;;;;;6.67;4.00;;;;;17.69;100.00;100454.53;5016464;28;48237;-78
2022/06/19 05:36:16;;;;;;;;;5.67;5.67;;;;;17.68;100.00;100439.00;5017665;28;45735;-79
2022/06/19 05:38:43;;;;;;;;;6.33;4.00;;;;;17.55;100.00;100406.16;5015272;28;45702;-82
2022/06/19 05:41:09;;;;;;;;;5.67;5.67;;;;;17.72;100.00;100442.06;5015750;28;45882;-82
2022/06/19 05:43:36;;;;;;;;;6.33;4.00;;;;;17.78;100.00;100458.50;5016220;28;48122;-79
2022/06/19 05:46:10;;;;;;;;;7.00;5.33;;;;;17.85;100.00;100460.22;5013582;28;45814;-79
2022/06/19 05:48:36;;;;;;;;;4.00;4.00;;;;;17.98;100.00;100482.81;5033697;28;45549;-79
2022/06/19 05:51:15;;;;;;;;;4.00;4.00;;;;;18.12;100.00;100499.84;5032712;28;45736;-81
2022/06/19 05:53:47;;;;;;;;;4.00;2.67;;;;;18.33;100.00;100488.91;5033750;28;46005;-82
2022/06/19 05:56:13;;;;;;;;;3.00;3.00;;;;;18.36;100.00;100432.84;5037995;28;45404;-80
2022/06/19 05:58:46;;;;;;;;;4.00;2.00;;;;;18.34;100.00;100407.31;5040788;28;45967;-80
2022/06/19 06:01:14;;;;;;;;;5.67;4.00;;;;;18.21;100.00;100386.41;5018289;28;45902;-80
2022/06/19 06:03:44;;;;;;;;;2.00;2.00;;;;;18.10;100.00;100348.59;5014298;28;48040;-81
2022/06/19 06:06:19;;;;;;;;;4.00;2.00;;;;;18.18;100.00;100370.28;5037998;28;45621;-82
2022/06/19 06:08:49;;;;;;;;;4.67;2.67;;;;;18.10;100.00;100357.75;5034219;28;45669;-82
2022/06/19 06:11:17;;;;;;;;;2.67;2.67;;;;;18.04;100.00;100366.31;5034597;28;45884;-80
2022/06/19 06:13:47;;;;;;;;;5.00;3.00;;;;;18.04;100.00;100297.78;5032044;28;45677;-81
2022/06/19 06:16:17;;;;;;;;;4.33;2.67;;;;;17.71;100.00;100249.88;5030312;28;45378;-83
2022/06/19 06:18:43;;;;;;;;;3.00;3.00;;;;;17.83;100.00;100313.47;5034816;28;45471;-80
2022/06/19 06:25:18;;;;;;;;;2.00;2.00;;;;;17.89;100.00;100390.09;4954512;28;45979;-83
2022/06/19 06:27:44;;;;;;;;;5.67;3.33;;;;;18.22;100.00;100463.03;4971301;28;45588;-81
2022/06/19 06:30:55;;;;;;;;;3.33;3.00;;;;;18.22;100.00;100471.34;5007643;28;45588;-81
2022/06/19 06:33:26;;;;;;;;;3.67;3.00;;;;;17.98;100.00;100529.19;5024118;28;45780;-80
2022/06/19 06:36:06;;;;;;;;;5.00;2.00;;;;;18.25;100.00;100508.81;5032656;28;45481;-81
2022/06/19 06:38:38;;;;;;;;;3.00;3.00;;;;;17.97;100.00;100483.91;5026196;28;45572;-80
2022/06/19 06:41:35;;;;;;;;;2.33;2.33;;;;;18.06;100.00;100430.72;5033141;28;45639;-79
2022/06/19 06:44:04;;;;;;;;;3.67;2.67;;;;;18.24;100.00;100607.09;5033710;28;46223;-81
2022/06/19 06:46:30;;;;;;;;;5.33;4.00;;;;;18.34;100.00;100585.81;5036018;28;46231;-89
2022/06/19 06:49:36;;;;;;;;;7.33;3.00;;;;;18.28;100.00;100386.19;5016446;28;45714;-81
2022/06/19 06:52:07;;;;;;;;;6.67;3.00;;;;;17.49;100.00;100441.31;5022218;28;45409;-79
2022/06/19 06:54:37;;;;;;;;;3.67;3.67;;;;;17.22;100.00;100496.75;5030690;28;45823;-78
2022/06/19 06:57:04;;;;;;;;;4.33;3.67;;;;;17.22;100.00;100530.84;5027849;28;46533;-77
2022/06/19 06:59:30;;;;;;;;;6.00;4.00;;;;;17.15;100.00;100496.09;5012876;28;45944;-81
2022/06/19 07:01:55;;;;;;;;;3.67;3.67;;;;;17.11;100.00;100477.22;5030007;28;45606;-77
2022/06/19 07:04:21;;;;;;;;;4.00;3.00;;;;;17.24;100.00;100441.88;5013571;28;46039;-76
2022/06/19 07:06:46;;;;;;;;;4.00;3.00;;;;;17.02;100.00;100389.28;5028905;28;46397;-78
2022/06/19 07:09:11;;;;;;;;;5.00;4.00;;;;;17.32;100.00;100451.66;5027752;28;45563;-78
2022/06/19 07:11:42;;;;;;;;;4.00;3.00;;;;;17.44;100.00;100527.19;5013450;28;45712;-78
2022/06/19 07:14:08;;;;;;;;;3.00;3.00;;;;;17.45;100.00;100535.28;5029072;28;45670;-79
2022/06/19 07:16:33;;;;;;;;;3.00;3.00;;;;;17.60;100.00;100544.84;5011879;28;47214;-78
2022/06/19 07:18:59;;;;;;;;;5.67;1.33;;;;;17.64;100.00;100559.88;5012516;28;45522;-76
2022/06/19 07:21:25;;;;;;;;;3.33;2.00;;;;;17.70;100.00;100541.34;5030907;28;45466;-77
2022/06/19 07:23:50;;;;;;;;;4.67;3.00;;;;;17.86;100.00;100561.75;5031103;28;45963;-76
2022/06/19 07:26:19;;;;;;;;;2.00;0.00;;;;;18.06;100.00;100514.81;5013897;28;47392;-80
2022/06/19 07:28:46;;;;;;;;;3.00;2.00;;;;;18.28;100.00;100483.34;5013952;28;45557;-77
2022/06/19 07:31:12;;;;;;;;;3.33;3.33;;;;;18.39;100.00;100553.66;5015965;28;45789;-77
2022/06/19 07:33:41;;;;;;;;;3.00;2.67;;;;;18.68;100.00;100634.69;5020830;28;47062;-79
2022/06/19 07:36:12;;;;;;;;;5.00;3.00;;;;;18.74;100.00;100658.63;5033443;28;46387;-79
2022/06/19 07:38:39;;;;;;;;;3.33;3.00;;;;;18.88;100.00;100667.38;5029246;28;45734;-78
2022/06/19 07:41:55;;;;;;;;;2.67;2.67;;;;;19.05;100.00;100667.22;5036495;28;45366;-77
2022/06/19 07:44:21;;;;;;;;;6.00;5.00;;;;;19.12;100.00;100594.72;4993717;28;46254;-80
2022/06/19 07:52:46;;;;;;;;;3.67;3.67;;;;;19.02;100.00;100624.09;5030998;28;45577;-82
2022/06/19 07:55:17;;;;;;;;;1.33;1.33;;;;;18.99;100.00;100634.94;5013938;28;46052;-80
2022/06/19 07:57:42;;;;;;;;;4.00;2.67;;;;;19.14;100.00;100695.34;5015538;28;46775;-80
2022/06/19 08:00:16;;;;;;;;;3.33;3.33;;;;;19.19;100.00;100701.78;5034807;28;45509;-80
2022/06/19 08:02:44;;;;;;;;;3.00;3.00;;;;;19.20;100.00;100735.97;5025595;28;45479;-81
2022/06/19 08:05:14;;;;;;;;;5.00;4.00;;;;;19.32;100.00;100811.69;5035663;28;45673;-82
2022/06/19 08:07:43;;;;;;;;;4.00;4.00;;;;;19.22;100.00;100790.22;5029207;28;45562;-80
2022/06/19 08:10:13;;;;;;;;;6.33;4.33;;;;;19.39;100.00;100733.63;5022407;28;45783;-79
2022/06/19 08:12:46;;;;;;;;;4.00;4.00;;;;;19.28;100.00;100623.41;5020774;28;45940;-79
2022/06/19 08:15:12;;;;;;;;;7.67;3.67;;;;;19.59;100.00;100602.13;5030583;28;45795;-79
2022/06/19 08:17:41;;;;;;;;;9.67;3.33;;;;;20.09;100.00;100613.72;5032122;28;46140;-80
2022/06/19 08:20:16;;;;;;;;;4.67;4.00;;;;;20.13;100.00;100575.03;5013704;28;45526;-80
2022/06/19 08:22:43;;;;;;;;;6.33;3.67;;;;;20.85;100.00;100519.25;5030335;28;45419;-80
2022/06/19 08:25:12;;;;;;;;;9.33;4.67;;;;;21.12;100.00;100516.06;5030117;28;45787;-79
2022/06/19 08:27:43;;;;;;;;;4.00;4.00;;;;;20.96;100.00;100521.72;5023585;28;45675;-79
2022/06/19 08:30:16;;;;;;;;;5.67;3.67;;;;;20.55;100.00;100532.94;5023942;28;45731;-80
2022/06/19 08:32:41;;;;;;;;;5.00;4.00;;;;;20.25;100.00;100556.94;5026535;28;45458;-80
2022/06/19 08:35:07;;;;;;;;;7.00;5.33;;;;;20.04;100.00;100572.75;5028674;28;47011;-79
2022/06/19 08:37:36;;;;;;;;;5.33;3.67;;;;;19.71;100.00;100529.56;5028825;28;48364;-79
2022/06/19 08:40:23;;;;;;;;;7.33;5.67;;;;;19.56;100.00;100545.09;5007996;28;45867;-79
2022/06/19 08:43:24;;;;;;;;;7.00;7.00;;;;;19.33;100.00;100540.03;5010052;28;45656;-81
2022/06/19 08:46:08;;;;;;;;;9.00;7.33;;;;;19.03;100.00;100509.06;5029801;28;46062;-78
2022/06/19 08:48:54;;;;;;;;;6.00;6.00;;;;;19.11;100.00;100521.59;5012819;28;48101;-82
2022/06/19 08:51:50;;;;;;;;;6.00;6.00;;;;;18.99;100.00;100491.25;5025860;28;45593;-82
2022/06/19 08:54:31;;;;;;;;;8.33;8.33;;;;;18.96;100.00;100507.63;4997185;28;45696;-82
2022/06/19 08:57:36;;;;;;;;;9.00;9.00;;;;;18.91;100.00;100521.50;5012715;28;46693;-81
2022/06/19 09:00:11;;;;;;;;;6.67;6.00;;;;;19.16;100.00;100541.09;5027440;28;46801;-82
2022/06/19 09:02:36;;;;;;;;;8.33;6.33;;;;;19.45;100.00;100535.06;5003564;28;45741;-81
2022/06/19 09:08:25;;;;;;;;;9.00;8.00;;;;;20.23;100.00;100519.34;5032814;28;45691;-80
2022/06/19 09:11:09;;;;;;;;;7.00;4.67;;;;;20.64;100.00;100524.84;5032260;28;45968;-82
2022/06/19 09:14:02;;;;;;;;;4.00;4.00;;;;;21.13;100.00;100534.47;5029237;28;45628;-81
2022/06/19 09:16:39;;;;;;;;;7.33;5.33;;;;;21.57;100.00;100550.50;5039880;28;45789;-80
2022/06/19 09:19:43;;;;;;;;;10.67;6.67;;;;;21.75;100.00;100559.31;5016458;28;45555;-82
2022/06/19 09:22:47;;;;;;;;;6.33;6.33;;;;;21.80;100.00;100567.66;5025460;28;45511;-81
2022/06/19 09:25:44;;;;;;;;;5.33;5.00;;;;;21.46;100.00;100529.31;5020913;28;45819;-79
2022/06/19 09:28:37;;;;;;;;;9.00;7.00;;;;;21.91;100.00;100608.34;5013113;28;45757;-81
2022/06/19 09:31:39;;;;;;;;;14.67;9.33;;;;;21.82;100.00;100582.16;5004968;28;45852;-82
2022/06/19 09:34:25;;;;;;;;;6.00;6.00;;;;;22.14;100.00;100622.72;5012752;28;46183;-82
2022/06/19 09:37:05;;;;;;;;;8.00;7.00;;;;;22.24;100.00;100631.03;5023613;28;45486;-80
2022/06/19 09:40:01;;;;;;;;;13.67;11.33;;;;;22.25;100.00;100618.75;5028913;28;45814;-78
2022/06/19 09:42:41;;;;;;;;;7.00;7.00;;;;;22.64;100.00;100631.88;5013045;28;45551;-79
2022/06/19 09:45:28;;;;;;;;;10.00;8.67;;;;;22.70;100.00;100597.13;5029690;28;46462;-80
2022/06/19 09:48:05;;;;;;;;;8.67;8.67;;;;;23.02;100.00;100584.50;5030352;28;45793;-78
2022/06/19 09:50:42;;;;;;;;;7.33;7.33;;;;;23.25;100.00;100601.66;5029330;28;45806;-80
2022/06/19 09:53:30;;;;;;;;;10.00;9.00;;;;;23.76;100.00;100645.78;5013594;28;45634;-81
2022/06/19 09:56:10;;;;;;;;;11.00;8.33;;;;;23.86;100.00;100596.38;5014842;28;48424;-81
2022/06/19 09:58:57;;;;;;;;;10.67;7.00;;;;;24.58;100.00;100643.78;5031529;28;45850;-80
2022/06/19 10:01:30;;;;;;;;;11.67;7.67;;;;;25.09;100.00;100641.19;5033100;28;45434;-81
2022/06/19 10:04:29;;;;;;;;;10.00;6.33;;;;;25.62;100.00;100600.59;5036276;28;45478;-81
2022/06/19 10:06:59;;;;;;;;;9.33;6.67;;;;;26.50;100.00;100633.13;5011271;28;47069;-82
2022/06/19 10:09:41;;;;;;;;;8.00;7.33;;;;;26.67;100.00;100548.88;5026685;28;45847;-81
2022/06/19 10:12:18;;;;;;;;;7.67;7.67;;;;;28.75;100.00;100613.59;5017249;28;44900;-82
2022/06/19 10:14:58;;;;;;;;;9.00;8.33;;;;;30.73;100.00;100604.56;5038317;28;45585;-82
2022/06/19 10:17:59;;;;;;;;;13.33;10.33;;;;;32.78;89.23;100592.41;5039164;28;46000;-81
2022/06/19 10:20:50;;;;;;;;;9.67;8.33;;;;;34.14;79.87;100586.38;5037542;28;45557;-81
2022/06/19 10:23:21;;;;;;;;;9.00;8.00;;;;;35.68;67.86;100596.16;5038163;28;45864;-81
2022/06/19 10:26:18;;;;;;;;;7.00;6.00;;;;;37.19;61.82;100594.28;5028310;28;45742;-80
2022/06/19 10:29:40;;;;;;;;;7.00;7.00;;;;;38.72;52.22;100575.53;5035678;28;46866;-84
2022/06/19 10:32:44;;;;;;;;;11.67;9.67;;;;;39.93;45.00;100563.56;5025098;28;45443;-83
2022/06/19 10:35:36;;;;;;;;;11.33;9.00;;;;;40.51;42.08;100567.88;5027619;28;45795;-82
2022/06/19 10:38:15;;;;;;;;;10.00;9.33;;;;;41.28;38.55;100549.59;5017470;28;45906;-83
2022/06/19 10:41:05;;;;;;;;;9.00;7.67;;;;;41.73;36.12;100557.38;5036162;28;45383;-82
2022/06/19 10:43:56;;;;;;;;;8.00;7.33;;;;;42.13;35.57;100560.59;5032204;28;45462;-80
2022/06/19 10:46:30;;;;;;;;;8.33;8.33;;;;;42.06;33.43;100511.72;5025483;28;45799;-80
2022/06/19 10:49:21;;;;;;;;;10.33;9.67;;;;;42.57;33.01;100557.94;5035376;28;45281;-84
2022/06/19 10:51:59;;;;;;;;;7.67;7.67;;;;;42.87;32.17;100576.47;5014669;28;45685;-84
2022/06/19 10:54:50;;;;;;;;;9.67;9.67;;;;;42.51;30.96;100516.44;5034471;28;45513;-82
2022/06/19 10:57:31;;;;;;;;;7.67;7.67;;;;;42.99;30.51;100572.16;4999376;28;45859;-82
2022/06/19 10:59:58;;;;;;;;;7.67;5.00;;;;;42.49;31.12;100527.59;5015412;28;45564;-82
2022/06/19 11:06:50;;;;;;;;;7.00;6.00;;;;;42.05;31.93;100582.09;4935427;28;45691;-82
2022/06/19 11:09:46;;;;;;;;;10.00;9.67;;;;;41.25;31.96;100533.16;4916021;28;45901;-81
2022/06/19 11:19:03;;;;;;;;;9.00;9.00;;;;;39.02;35.68;100551.38;5002590;28;45853;-82
2022/06/19 11:22:28;;;;;;;;;9.33;9.00;;;;;38.25;37.62;100532.44;5017880;28;45541;-83
2022/06/19 11:25:33;;;;;;;;;11.33;6.33;;;;;37.28;40.65;100546.19;4989311;28;45588;-82
2022/06/19 11:28:18;;;;;;;;;11.00;8.67;;;;;36.67;41.81;100560.72;4995408;28;46413;-83
2022/06/19 11:31:28;;;;;;;;;10.67;9.33;;;;;35.96;45.68;100578.63;4997909;28;45529;-82
2022/06/19 11:33:59;;;;;;;;;8.00;8.00;;;;;35.09;47.80;100530.84;5011448;28;45459;-82
2022/06/19 11:36:31;;;;;;;;;7.00;7.00;;;;;34.78;49.96;100575.50;5016715;28;45554;-83
2022/06/19 11:39:02;;;;;;;;;8.33;8.00;;;;;33.96;53.43;100586.81;5016052;28;45866;-84
2022/06/19 11:41:36;;;;;;;;;10.00;8.00;;;;;32.94;55.33;100478.81;5016714;28;45534;-83
2022/06/19 11:44:23;;;;;;;;;7.00;7.00;;;;;32.78;58.35;100556.31;5011695;28;45595;-83
2022/06/19 11:47:16;;;;;;;;;6.33;6.33;;;;;31.49;62.62;100497.44;4988704;28;45498;-82
2022/06/19 11:49:55;;;;;;;;;;;;;;;;;;;;;
2022/06/19 11:52:33;;;;;;;;;7.00;7.00;;;;;29.93;71.28;100504.66;5010743;28;45743;-84
2022/06/19 11:55:03;;;;;;;;;8.33;8.33;;;;;29.39;74.07;100513.84;5005095;28;45530;-81
2022/06/19 11:57:36;;;;;;;;;6.00;6.00;;;;;29.10;78.67;100505.34;5006743;28;46089;-83
2022/06/19 12:00:24;;;;;;;;;8.33;8.00;;;;;28.42;79.31;100458.16;5023256;28;47512;-81
2022/06/19 12:02:55;;;;;;;;;7.00;5.00;;;;;27.80;84.16;100451.78;5008292;28;45456;-83
2022/06/19 12:05:55;;;;;;;;;6.33;6.33;;;;;27.47;86.72;100509.47;5007983;28;45454;-80
2022/06/19 12:08:28;;;;;;;;;10.00;9.33;;;;;26.93;89.28;100495.56;5011957;28;45714;-80
2022/06/19 12:11:11;;;;;;;;;10.00;9.00;;;;;26.06;93.58;100441.66;5010380;28;46799;-81
2022/06/19 12:13:41;;;;;;;;;10.67;8.00;;;;;25.77;97.79;100459.78;5003592;28;46723;-83
2022/06/19 12:16:18;;;;;;;;;8.67;8.00;;;;;25.29;100.00;100432.25;5025936;28;45462;-83